R5462 YADG-YKSC

Flight info

Callsign R5462
Flight time 0h 34m
Altitude 4500
Route YGWA DCT CAJE
Aircraft C172/L-SFG/C

Departure

Time 2026-04-30 06:13
Airport Aldinga Airport (YADG)

Arrival

Time 2026-04-30 06:47
Airport Kingscote Airport (YKSC)
Time Latitude Longitude Altitude Speed Heading
2026-04-30 06:03 -35.28783 138.49266 119 ft 0 kts 51°
2026-04-30 06:07 -35.28784 138.49269 119 ft 3 kts 162°
2026-04-30 06:08 -35.28792 138.49258 119 ft 0 kts 238°
2026-04-30 06:09 -35.28825 138.49284 119 ft 16 kts 146°
2026-04-30 06:09 -35.28869 138.49324 120 ft 3 kts 132°
2026-04-30 06:09 -35.28875 138.49348 121 ft 0 kts 330°
2026-04-30 06:11 -35.28886 138.49345 121 ft 7 kts 142°
2026-04-30 06:11 -35.28903 138.49394 123 ft 8 kts 35°
2026-04-30 06:11 -35.28874 138.49416 124 ft 4 kts 32°
2026-04-30 06:12 -35.28890 138.49452 125 ft 17 kts 139°
2026-04-30 06:12 -35.28991 138.49551 128 ft 17 kts 141°
2026-04-30 06:12 -35.29080 138.49644 130 ft 16 kts 139°
2026-04-30 06:12 -35.29158 138.49721 132 ft 7 kts 139°
2026-04-30 06:13 -35.29168 138.49727 132 ft 2 kts 323°
2026-04-30 06:13 -35.28928 138.49483 133 ft 81 kts 319°
2026-04-30 06:13 -35.28563 138.49019 624 ft 71 kts 311°
2026-04-30 06:13 -35.28532 138.48468 950 ft 99 kts 229°
2026-04-30 06:14 -35.29264 138.48511 1195 ft 124 kts 155°
2026-04-30 06:14 -35.30091 138.48956 1548 ft 128 kts 147°
2026-04-30 06:14 -35.30854 138.49489 1981 ft 126 kts 142°
2026-04-30 06:14 -35.31566 138.50078 2407 ft 122 kts 141°
2026-04-30 06:15 -35.32268 138.50648 2823 ft 123 kts 141°
2026-04-30 06:15 -35.32969 138.51242 3179 ft 125 kts 136°
2026-04-30 06:15 -35.33702 138.51945 3421 ft 138 kts 135°
2026-04-30 06:15 -35.34438 138.52716 3717 ft 142 kts 132°
2026-04-30 06:16 -35.35173 138.53543 4014 ft 146 kts 130°
2026-04-30 06:16 -35.35925 138.54391 4296 ft 150 kts 133°
2026-04-30 06:16 -35.36737 138.55278 4381 ft 160 kts 134°
2026-04-30 06:16 -35.37592 138.56203 4397 ft 169 kts 134°
2026-04-30 06:17 -35.38495 138.57181 4397 ft 174 kts 134°
2026-04-30 06:17 -35.39394 138.58176 4374 ft 170 kts 133°
2026-04-30 06:17 -35.40248 138.59187 4249 ft 172 kts 131°
2026-04-30 06:17 -35.41085 138.60239 4234 ft 174 kts 128°
2026-04-30 06:18 -35.41874 138.61333 4290 ft 170 kts 127°
2026-04-30 06:18 -35.42637 138.62402 4275 ft 163 kts 126°
2026-04-30 06:18 -35.43361 138.63461 4261 ft 159 kts 123°
2026-04-30 06:18 -35.44036 138.64520 4258 ft 155 kts 122°
2026-04-30 06:19 -35.44710 138.65562 4199 ft 157 kts 122°
2026-04-30 06:19 -35.45369 138.66597 4226 ft 152 kts 122°
2026-04-30 06:19 -35.46063 138.67639 4105 ft 159 kts 123°
2026-04-30 06:19 -35.46751 138.68692 4085 ft 155 kts 122°
2026-04-30 06:20 -35.47423 138.69667 4166 ft 148 kts 130°
2026-04-30 06:20 -35.48225 138.70428 4257 ft 142 kts 143°
2026-04-30 06:20 -35.49129 138.70923 4232 ft 147 kts 161°
2026-04-30 06:20 -35.50167 138.71263 4123 ft 155 kts 172°
2026-04-30 06:21 -35.51214 138.71283 4162 ft 150 kts 185°
2026-04-30 06:21 -35.52246 138.71199 4214 ft 145 kts 185°
2026-04-30 06:21 -35.53260 138.71161 4204 ft 147 kts 181°
2026-04-30 06:21 -35.54284 138.71175 4231 ft 145 kts 177°
2026-04-30 06:22 -35.54953 138.70714 4458 ft 110 kts 249°
2026-04-30 06:22 -35.55392 138.69814 4282 ft 131 kts 244°
2026-04-30 06:22 -35.55915 138.68866 4269 ft 133 kts 242°
2026-04-30 06:22 -35.56507 138.67976 4265 ft 137 kts 233°
2026-04-30 06:23 -35.57191 138.67137 4215 ft 142 kts 231°
2026-04-30 06:23 -35.57903 138.66249 4085 ft 151 kts 233°
2026-04-30 06:23 -35.58553 138.65216 3927 ft 156 kts 240°
2026-04-30 06:23 -35.59179 138.64198 4069 ft 142 kts 234°
2026-04-30 06:24 -35.59914 138.63300 3829 ft 160 kts 230°
2026-04-30 06:24 -35.60773 138.62349 3598 ft 171 kts 225°
2026-04-30 06:24 -35.61759 138.61421 3342 ft 177 kts 226°
2026-04-30 06:24 -35.62659 138.60486 3532 ft 160 kts 222°
2026-04-30 06:25 -35.63463 138.59712 4058 ft 139 kts 235°
2026-04-30 06:25 -35.63992 138.58832 4149 ft 123 kts 244°
2026-04-30 06:25 -35.64385 138.57960 4139 ft 111 kts 258°
2026-04-30 06:25 -35.64653 138.57059 4116 ft 115 kts 262°
2026-04-30 06:26 -35.64865 138.56070 4096 ft 121 kts 264°
2026-04-30 06:26 -35.65091 138.55103 4185 ft 119 kts 264°
2026-04-30 06:26 -35.65258 138.54102 4204 ft 121 kts 266°
2026-04-30 06:26 -35.65484 138.53087 4326 ft 130 kts 262°
2026-04-30 06:27 -35.65789 138.51927 4399 ft 150 kts 258°
2026-04-30 06:27 -35.66180 138.50690 4455 ft 164 kts 253°
2026-04-30 06:27 -35.66618 138.49374 4619 ft 164 kts 257°
2026-04-30 06:27 -35.67026 138.48058 4776 ft 168 kts 252°
2026-04-30 06:28 -35.67495 138.46738 4905 ft 171 kts 253°
2026-04-30 06:28 -35.67996 138.45404 5046 ft 171 kts 253°
2026-04-30 06:28 -35.68239 138.44087 5222 ft 162 kts 270°
2026-04-30 06:28 -35.68412 138.42601 4754 ft 189 kts 266°
2026-04-30 06:29 -35.68638 138.41020 4876 ft 181 kts 264°
2026-04-30 06:29 -35.68893 138.39557 5043 ft 168 kts 263°
2026-04-30 06:29 -35.68993 138.38240 5420 ft 135 kts 290°
2026-04-30 06:29 -35.68605 138.37137 5287 ft 152 kts 298°
2026-04-30 06:30 -35.68160 138.35945 5305 ft 154 kts 298°
2026-04-30 06:30 -35.67764 138.34610 4998 ft 174 kts 291°
2026-04-30 06:30 -35.67530 138.33191 4933 ft 177 kts 277°
2026-04-30 06:30 -35.67818 138.31665 4886 ft 193 kts 246°
2026-04-30 06:31 -35.68518 138.30273 4876 ft 187 kts 259°
2026-04-30 06:31 -35.68657 138.28949 4843 ft 128 kts 272°
2026-04-30 06:31 -35.68751 138.28052 4751 ft 95 kts 274°
2026-04-30 06:31 -35.68870 138.27293 4550 ft 85 kts 272°
2026-04-30 06:32 -35.68994 138.26631 4384 ft 72 kts 275°
2026-04-30 06:32 -35.69078 138.25922 4399 ft 95 kts 273°
2026-04-30 06:32 -35.69231 138.25188 4368 ft 107 kts 264°
2026-04-30 06:32 -35.69479 138.24205 4376 ft 138 kts 260°
2026-04-30 06:33 -35.69790 138.23149 4416 ft 112 kts 258°
2026-04-30 06:33 -35.70052 138.22243 4301 ft 124 kts 264°
2026-04-30 06:33 -35.70318 138.21088 4288 ft 149 kts 262°
2026-04-30 06:33 -35.70608 138.19846 4502 ft 150 kts 262°
2026-04-30 06:34 -35.70913 138.18611 4458 ft 167 kts 260°
2026-04-30 06:34 -35.71281 138.17223 4456 ft 176 kts 258°
2026-04-30 06:34 -35.71728 138.15801 4464 ft 182 kts 252°
2026-04-30 06:34 -35.72067 138.14360 4630 ft 171 kts 264°
2026-04-30 06:35 -35.72313 138.12900 4622 ft 177 kts 265°
2026-04-30 06:35 -35.72602 138.11353 4296 ft 197 kts 263°
2026-04-30 06:35 -35.72953 138.09654 3889 ft 205 kts 259°
2026-04-30 06:35 -35.73333 138.08105 4038 ft 167 kts 262°
2026-04-30 06:36 -35.73603 138.06838 4119 ft 149 kts 266°
2026-04-30 06:36 -35.73679 138.05572 3872 ft 155 kts 277°
2026-04-30 06:36 -35.73644 138.04236 3703 ft 153 kts 278°
2026-04-30 06:36 -35.73694 138.02945 3597 ft 155 kts 272°
2026-04-30 06:37 -35.73940 138.01607 3568 ft 163 kts 257°
2026-04-30 06:37 -35.74429 138.00334 3629 ft 165 kts 252°
2026-04-30 06:37 -35.75057 137.99141 3621 ft 173 kts 239°
2026-04-30 06:37 -35.75806 137.98003 3750 ft 165 kts 243°
2026-04-30 06:38 -35.76445 137.96819 3799 ft 172 kts 245°
2026-04-30 06:38 -35.77134 137.95549 3785 ft 181 kts 242°
2026-04-30 06:38 -35.78078 137.94473 3845 ft 193 kts 218°
2026-04-30 06:38 -35.79033 137.93433 4028 ft 179 kts 232°
2026-04-30 06:39 -35.79832 137.92204 3872 ft 191 kts 238°
2026-04-30 06:39 -35.80576 137.90887 3914 ft 183 kts 249°
2026-04-30 06:39 -35.81155 137.89409 3631 ft 193 kts 253°
2026-04-30 06:39 -35.81635 137.87895 3523 ft 188 kts 260°
2026-04-30 06:40 -35.81760 137.86409 3664 ft 162 kts 287°
2026-04-30 06:40 -35.81596 137.85083 3827 ft 156 kts 281°
2026-04-30 06:40 -35.81522 137.83722 3754 ft 170 kts 281°
2026-04-30 06:40 -35.81395 137.82281 3771 ft 167 kts 286°
2026-04-30 06:41 -35.81173 137.80844 3752 ft 169 kts 287°
2026-04-30 06:41 -35.80969 137.79381 3635 ft 179 kts 282°
2026-04-30 06:41 -35.80844 137.77882 3674 ft 173 kts 286°
2026-04-30 06:41 -35.80550 137.76408 3567 ft 177 kts 291°
2026-04-30 06:42 -35.80251 137.74974 3713 ft 170 kts 287°
2026-04-30 06:42 -35.80091 137.73564 3832 ft 167 kts 286°
2026-04-30 06:42 -35.79826 137.72171 3882 ft 166 kts 291°
2026-04-30 06:42 -35.79471 137.70842 3951 ft 164 kts 292°
2026-04-30 06:43 -35.79019 137.69566 3985 ft 164 kts 302°
2026-04-30 06:43 -35.78535 137.68266 3969 ft 166 kts 300°
2026-04-30 06:43 -35.78072 137.66978 3992 ft 165 kts 297°
2026-04-30 06:43 -35.77854 137.65558 3959 ft 174 kts 275°
2026-04-30 06:44 -35.77541 137.64258 4103 ft 159 kts 300°
2026-04-30 06:44 -35.77034 137.62997 3884 ft 173 kts 300°
2026-04-30 06:44 -35.76577 137.61609 3743 ft 177 kts 297°
2026-04-30 06:44 -35.76129 137.60150 3197 ft 187 kts 290°
2026-04-30 06:45 -35.75970 137.58595 2973 ft 180 kts 283°
2026-04-30 06:45 -35.75830 137.57060 2708 ft 178 kts 283°
2026-04-30 06:45 -35.75664 137.55534 2308 ft 186 kts 285°
2026-04-30 06:45 -35.75381 137.54034 1867 ft 170 kts 297°
2026-04-30 06:46 -35.74911 137.52829 1301 ft 148 kts 308°
2026-04-30 06:46 -35.74341 137.51939 861 ft 122 kts 322°
2026-04-30 06:46 -35.73647 137.51538 625 ft 96 kts 13°
2026-04-30 06:46 -35.73060 137.51851 318 ft 84 kts 13°
2026-04-30 06:47 -35.72537 137.52094 207 ft 75 kts 19°
2026-04-30 06:47 -35.72069 137.52312 83 ft 71 kts 19°
2026-04-30 06:47 -35.71660 137.52510 28 ft 53 kts 21°
2026-04-30 06:47 -35.71362 137.52655 28 ft 40 kts 21°
2026-04-30 06:48 -35.71137 137.52760 28 ft 22 kts 14°
2026-04-30 06:48 -35.71066 137.52663 28 ft 19 kts 276°
2026-04-30 06:48 -35.71016 137.52508 31 ft 16 kts 10°
2026-04-30 06:48 -35.70987 137.52513 31 ft 0 kts 193°
2026-04-30 06:49 -35.70990 137.52513 31 ft 0 kts 184°